Time;durP1;ratioP1;P1;durP2;ratioP2;P2;SDS_P1;SDS_P2;PMS_P1;PMS_P2;Temp;Humidity;BMP_temperature;BMP_pressure;BME280_temperature;BME280_humidity;BME280_pressure;Samples;Min_cycle;Max_cycle;Signal;HPM_P1;HPM_P2
2023/09/08 00:00:15;;;;;;;;;;;23.80;59.80;;;;;;8510025;27;20368;-49
2023/09/08 00:04:16;;;;;;;;;;;23.80;59.80;;;;;;8510149;27;19946;-48
2023/09/08 00:08:17;;;;;;;;;;;23.80;59.70;;;;;;8491257;27;20239;-51
2023/09/08 00:12:17;;;;;;;;;;;23.80;59.50;;;;;;8509654;27;19919;-51
2023/09/08 00:16:18;;;;;;;;;;;23.90;59.50;;;;;;8509300;27;19919;-50
2023/09/08 00:20:18;;;;;;;;;;;23.80;59.50;;;;;;8513545;27;20264;-51
2023/09/08 00:24:19;;;;;;;;;;;23.90;59.50;;;;;;8542498;27;19984;-49
2023/09/08 00:28:20;;;;;;;;;;;23.80;59.60;;;;;;8522056;27;19913;-51
2023/09/08 00:32:20;;;;;;;;;;;23.90;59.60;;;;;;8532017;27;20375;-48
2023/09/08 00:36:21;;;;;;;;;;;23.80;59.60;;;;;;8563106;27;20018;-50
2023/09/08 00:40:21;;;;;;;;;;;23.80;59.90;;;;;;8563785;27;19922;-48
2023/09/08 00:44:22;;;;;;;;;;;23.70;59.60;;;;;;8562055;27;19917;-49
2023/09/08 00:48:23;;;;;;;;;;;23.70;59.60;;;;;;8562773;27;19945;-51
2023/09/08 00:52:23;;;;;;;;;;;23.70;59.70;;;;;;8564014;27;19918;-51
2023/09/08 00:56:24;;;;;;;;;;;23.70;59.70;;;;;;8530762;27;19956;-49
2023/09/08 01:00:25;;;;;;;;;;;23.70;59.70;;;;;;8511065;27;19911;-50
2023/09/08 01:04:25;;;;;;;;;;;23.70;59.70;;;;;;8494730;27;19919;-52
2023/09/08 01:08:26;;;;;;;;;;;23.70;59.70;;;;;;8494985;27;20448;-51
2023/09/08 01:12:27;;;;;;;;;;;23.70;59.70;;;;;;8494367;27;19908;-49
2023/09/08 01:16:27;;;;;;;;;;;23.60;59.70;;;;;;8494331;27;19920;-50
2023/09/08 01:20:35;;;;;;;;;;;23.70;59.80;;;;;;8494378;27;19969;-49
2023/09/08 01:24:58;;;;;;;;;;;23.60;59.70;;;;;;8494896;27;20023;-49
2023/09/08 01:28:59;;;;;;;;;;;23.60;59.80;;;;;;8494525;28;19915;-50
2023/09/08 01:33:00;;;;;;;;;;;23.60;59.80;;;;;;8494635;28;19988;-49
2023/09/08 01:37:04;;;;;;;;;;;23.50;59.80;;;;;;8494177;28;19919;-50
2023/09/08 01:41:04;;;;;;;;;;;23.60;59.80;;;;;;8494101;28;19912;-51
2023/09/08 01:45:05;;;;;;;;;;;23.60;59.80;;;;;;8494329;28;19919;-51
2023/09/08 01:49:06;;;;;;;;;;;23.50;59.80;;;;;;8475745;28;19915;-49
2023/09/08 01:53:07;;;;;;;;;;;23.60;59.80;;;;;;8494183;28;19912;-49
2023/09/08 01:57:07;;;;;;;;;;;23.50;59.80;;;;;;8494157;27;20287;-49
2023/09/08 02:01:08;;;;;;;;;;;23.50;59.80;;;;;;8494027;28;19915;-49
2023/09/08 02:05:09;;;;;;;;;;;23.50;59.80;;;;;;8493891;28;19956;-49
2023/09/08 02:09:15;;;;;;;;;;;23.50;59.80;;;;;;8493670;28;19996;-49
2023/09/08 02:13:15;;;;;;;;;;;23.50;59.80;;;;;;8493689;28;19907;-49
2023/09/08 02:17:16;;;;;;;;;;;23.50;59.80;;;;;;8475246;28;19924;-49
2023/09/08 02:21:17;;;;;;;;;;;23.50;59.80;;;;;;8493237;28;19924;-49
2023/09/08 02:25:17;;;;;;;;;;;23.50;59.80;;;;;;8495125;27;19907;-50
2023/09/08 02:29:18;;;;;;;;;;;23.50;59.80;;;;;;8499755;27;20376;-52
2023/09/08 02:33:19;;;;;;;;;;;23.50;59.80;;;;;;8499567;27;19908;-49
2023/09/08 02:37:19;;;;;;;;;;;23.50;59.80;;;;;;8499588;27;19916;-50
2023/09/08 02:41:20;;;;;;;;;;;23.50;59.90;;;;;;8499272;27;19918;-51
2023/09/08 02:45:21;;;;;;;;;;;23.50;59.80;;;;;;8499430;27;19914;-50
2023/09/08 02:49:21;;;;;;;;;;;23.50;59.90;;;;;;8499244;27;19917;-50
2023/09/08 02:53:23;;;;;;;;;;;23.50;59.90;;;;;;8498934;27;20287;-52
2023/09/08 02:57:23;;;;;;;;;;;23.50;59.90;;;;;;8499013;27;19919;-49
2023/09/08 03:01:24;;;;;;;;;;;23.50;59.90;;;;;;8499029;27;19912;-51
2023/09/08 03:05:25;;;;;;;;;;;23.50;59.90;;;;;;8498612;27;20348;-51
2023/09/08 03:09:25;;;;;;;;;;;23.50;59.90;;;;;;8498493;27;19998;-51
2023/09/08 03:13:26;;;;;;;;;;;23.40;59.90;;;;;;8498540;27;20468;-49
2023/09/08 03:17:27;;;;;;;;;;;23.40;59.80;;;;;;8498564;27;20434;-49
2023/09/08 03:21:28;;;;;;;;;;;23.40;59.80;;;;;;8498198;27;19937;-50
2023/09/08 03:25:28;;;;;;;;;;;23.40;59.80;;;;;;8479676;27;19912;-49
2023/09/08 03:29:29;;;;;;;;;;;23.50;59.90;;;;;;8498303;27;19955;-49
2023/09/08 03:33:30;;;;;;;;;;;23.40;59.80;;;;;;8497856;27;20154;-49
2023/09/08 03:37:30;;;;;;;;;;;23.40;59.80;;;;;;8497387;27;19915;-50
2023/09/08 03:41:31;;;;;;;;;;;23.40;59.80;;;;;;8497237;27;19919;-49
2023/09/08 03:45:32;;;;;;;;;;;23.40;59.90;;;;;;8497405;27;19968;-51
2023/09/08 03:49:33;;;;;;;;;;;23.50;59.90;;;;;;8497729;27;20073;-51
2023/09/08 03:53:33;;;;;;;;;;;23.40;59.80;;;;;;8496962;27;20012;-52
2023/09/08 03:57:34;;;;;;;;;;;23.40;59.80;;;;;;8497438;27;19915;-51
2023/09/08 04:01:34;;;;;;;;;;;23.40;59.80;;;;;;8496527;27;19912;-50
2023/09/08 04:05:35;;;;;;;;;;;23.40;59.80;;;;;;8496749;27;20369;-50
2023/09/08 04:09:35;;;;;;;;;;;23.40;59.90;;;;;;8512600;27;20271;-49
2023/09/08 04:13:36;;;;;;;;;;;23.40;59.80;;;;;;8496302;27;19927;-50
2023/09/08 04:17:36;;;;;;;;;;;23.40;59.90;;;;;;8496024;27;19971;-49
2023/09/08 04:21:37;;;;;;;;;;;23.40;59.80;;;;;;8496001;27;20541;-50
2023/09/08 04:25:38;;;;;;;;;;;23.40;59.90;;;;;;8496208;27;19919;-51
2023/09/08 04:29:38;;;;;;;;;;;23.40;59.80;;;;;;8496343;27;19912;-50
2023/09/08 04:33:39;;;;;;;;;;;23.40;59.90;;;;;;8495740;27;19972;-51
2023/09/08 04:37:40;;;;;;;;;;;23.40;59.80;;;;;;8495537;27;19954;-49
2023/09/08 04:41:40;;;;;;;;;;;23.40;59.80;;;;;;8495489;27;19946;-51
2023/09/08 04:45:41;;;;;;;;;;;23.40;59.80;;;;;;8496302;27;19914;-50
2023/09/08 04:49:41;;;;;;;;;;;23.40;59.90;;;;;;8494684;27;19919;-49
2023/09/08 04:53:42;;;;;;;;;;;23.40;59.90;;;;;;8495199;27;19934;-49
2023/09/08 04:57:42;;;;;;;;;;;23.40;59.80;;;;;;8495205;27;19915;-49
2023/09/08 05:01:43;;;;;;;;;;;23.40;59.90;;;;;;8495009;27;19942;-50
2023/09/08 05:05:44;;;;;;;;;;;23.40;59.90;;;;;;8494947;27;19908;-51
2023/09/08 05:09:45;;;;;;;;;;;23.40;59.90;;;;;;8494589;27;20391;-50
2023/09/08 05:13:48;;;;;;;;;;;23.40;59.90;;;;;;8495259;27;20100;-50
2023/09/08 05:17:49;;;;;;;;;;;23.40;59.90;;;;;;8494604;27;19967;-52
2023/09/08 05:21:50;;;;;;;;;;;23.40;59.80;;;;;;8494167;27;19923;-50
2023/09/08 05:25:52;;;;;;;;;;;23.40;59.90;;;;;;8493881;27;20309;-49
2023/09/08 05:29:53;;;;;;;;;;;23.40;59.90;;;;;;8494431;28;19958;-51
2023/09/08 05:33:53;;;;;;;;;;;23.40;59.90;;;;;;8494211;28;20002;-49
2023/09/08 05:37:54;;;;;;;;;;;23.40;59.80;;;;;;8475712;28;19923;-50
2023/09/08 05:41:54;;;;;;;;;;;23.40;59.90;;;;;;8494159;28;19911;-51
2023/09/08 05:45:55;;;;;;;;;;;23.40;59.90;;;;;;8494124;28;19912;-50
2023/09/08 05:49:55;;;;;;;;;;;23.40;59.90;;;;;;8494091;28;19955;-51
2023/09/08 05:53:56;;;;;;;;;;;23.40;59.90;;;;;;8475790;28;20307;-49
2023/09/08 05:57:57;;;;;;;;;;;23.40;59.90;;;;;;8494030;27;19916;-49
2023/09/08 06:01:57;;;;;;;;;;;23.40;59.90;;;;;;8499523;27;19946;-49
2023/09/08 06:05:58;;;;;;;;;;;23.40;59.90;;;;;;8481949;27;20376;-49
2023/09/08 06:09:59;;;;;;;;;;;23.40;59.90;;;;;;8500464;27;20009;-50
2023/09/08 06:13:59;;;;;;;;;;;23.40;59.90;;;;;;8500485;27;20385;-49
2023/09/08 06:18:00;;;;;;;;;;;23.40;59.90;;;;;;8500163;27;20014;-50
2023/09/08 06:22:00;;;;;;;;;;;23.40;59.80;;;;;;8481521;27;20222;-51
2023/09/08 06:26:01;;;;;;;;;;;23.40;59.90;;;;;;8500231;27;19960;-49
2023/09/08 06:30:02;;;;;;;;;;;23.40;59.90;;;;;;8499924;27;19908;-49
2023/09/08 06:34:03;;;;;;;;;;;23.40;59.90;;;;;;8499803;27;19939;-51
2023/09/08 06:38:03;;;;;;;;;;;23.40;59.90;;;;;;8481372;27;19919;-49
2023/09/08 06:42:04;;;;;;;;;;;23.40;59.90;;;;;;8499508;27;19911;-49
2023/09/08 06:46:04;;;;;;;;;;;23.40;59.90;;;;;;8499441;27;19908;-50
2023/09/08 06:50:06;;;;;;;;;;;23.30;59.90;;;;;;8499220;27;19911;-50
2023/09/08 06:54:07;;;;;;;;;;;23.40;59.90;;;;;;8498921;27;19919;-49
2023/09/08 06:58:07;;;;;;;;;;;23.40;59.90;;;;;;8499316;27;19922;-49
2023/09/08 07:02:08;;;;;;;;;;;23.40;59.90;;;;;;8499118;27;19912;-49
2023/09/08 07:06:09;;;;;;;;;;;23.40;59.90;;;;;;8498661;27;19946;-48
2023/09/08 07:10:09;;;;;;;;;;;23.40;59.90;;;;;;8498715;27;19954;-49
2023/09/08 07:14:10;;;;;;;;;;;23.40;59.90;;;;;;8479465;27;19919;-50
2023/09/08 07:18:11;;;;;;;;;;;23.40;60.00;;;;;;8498291;27;19964;-50
2023/09/08 07:22:11;;;;;;;;;;;23.40;59.90;;;;;;8498063;27;19931;-49
2023/09/08 07:26:12;;;;;;;;;;;23.30;59.90;;;;;;8498466;27;19911;-48
2023/09/08 07:30:13;;;;;;;;;;;23.30;59.90;;;;;;8497657;27;20310;-51
2023/09/08 07:34:13;;;;;;;;;;;23.40;59.90;;;;;;8497938;27;20429;-51
2023/09/08 07:38:14;;;;;;;;;;;23.30;59.90;;;;;;8497637;27;20326;-49
2023/09/08 07:42:14;;;;;;;;;;;23.30;59.90;;;;;;8497569;27;19918;-51
2023/09/08 07:46:15;;;;;;;;;;;23.30;59.90;;;;;;8497517;27;20006;-48
2023/09/08 07:50:17;;;;;;;;;;;23.40;59.90;;;;;;8497156;27;20272;-49
2023/09/08 07:54:17;;;;;;;;;;;23.30;59.90;;;;;;8497746;27;19908;-51
2023/09/08 07:58:18;;;;;;;;;;;23.40;59.90;;;;;;8497219;27;20006;-48
2023/09/08 08:02:18;;;;;;;;;;;23.30;59.90;;;;;;8497724;27;19958;-49
2023/09/08 08:06:19;;;;;;;;;;;23.30;60.70;;;;;;8496712;27;19911;-49
2023/09/08 08:10:19;;;;;;;;;;;23.30;59.90;;;;;;8496773;27;19907;-48
2023/09/08 08:14:20;;;;;;;;;;;23.30;59.90;;;;;;8496334;27;20045;-51
2023/09/08 08:18:20;;;;;;;;;;;23.30;59.90;;;;;;8496999;27;19915;-51
2023/09/08 08:22:21;;;;;;;;;;;23.30;59.90;;;;;;8495701;27;19968;-49
2023/09/08 08:26:22;;;;;;;;;;;23.30;59.90;;;;;;8495869;27;19915;-49
2023/09/08 08:30:22;;;;;;;;;;;23.30;59.90;;;;;;8496482;27;19995;-49
2023/09/08 08:34:23;;;;;;;;;;;23.30;59.90;;;;;;8495822;27;19918;-49
2023/09/08 08:38:23;;;;;;;;;;;23.30;59.90;;;;;;8497385;27;19926;-49
2023/09/08 08:42:30;;;;;;;;;;;23.30;59.90;;;;;;8495867;27;19998;-51
2023/09/08 08:46:31;;;;;;;;;;;23.30;59.90;;;;;;8495349;27;19907;-49
2023/09/08 08:50:32;;;;;;;;;;;23.30;59.90;;;;;;8495512;27;20361;-48
2023/09/08 08:54:35;;;;;;;;;;;23.30;59.90;;;;;;8496248;27;19974;-51
2023/09/08 08:58:37;;;;;;;;;;;23.30;59.90;;;;;;8494984;27;19911;-49
2023/09/08 09:02:38;;;;;;;;;;;23.30;59.90;;;;;;8495215;27;19914;-48
2023/09/08 09:06:39;;;;;;;;;;;23.30;59.90;;;;;;8494852;27;19908;-50
2023/09/08 09:10:40;;;;;;;;;;;23.30;59.90;;;;;;8494700;27;20435;-49
2023/09/08 09:14:44;;;;;;;;;;;23.30;59.90;;;;;;8494830;27;19911;-49
2023/09/08 09:18:55;;;;;;;;;;;23.30;59.90;;;;;;8494493;27;19969;-49
2023/09/08 09:22:56;;;;;;;;;;;23.30;59.90;;;;;;8475977;27;19919;-49
2023/09/08 09:26:56;;;;;;;;;;;23.30;59.80;;;;;;8495187;27;19988;-51
2023/09/08 09:30:58;;;;;;;;;;;23.40;59.90;;;;;;8494471;28;19907;-48
2023/09/08 09:35:00;;;;;;;;;;;23.30;59.80;;;;;;8496720;27;19914;-49
2023/09/08 09:39:01;;;;;;;;;;;23.30;59.80;;;;;;8501214;27;19916;-50
2023/09/08 09:43:04;;;;;;;;;;;23.40;59.90;;;;;;8501410;27;20429;-51
2023/09/08 09:47:06;;;;;;;;;;;23.40;59.90;;;;;;8501272;27;20296;-49
2023/09/08 09:51:17;;;;;;;;;;;23.40;59.90;;;;;;8500920;27;19915;-51
2023/09/08 09:55:17;;;;;;;;;;;23.40;59.90;;;;;;8483153;27;19915;-48
2023/09/08 09:59:18;;;;;;;;;;;23.40;59.90;;;;;;8500958;27;19964;-50
2023/09/08 10:03:19;;;;;;;;;;;23.40;59.80;;;;;;8500467;27;19919;-49
2023/09/08 10:07:20;;;;;;;;;;;23.40;59.90;;;;;;8500878;27;19911;-49
2023/09/08 10:11:21;;;;;;;;;;;23.40;59.90;;;;;;8516578;27;19919;-48
2023/09/08 10:15:23;;;;;;;;;;;23.40;59.90;;;;;;8500047;27;20314;-49
2023/09/08 10:19:23;;;;;;;;;;;23.40;59.90;;;;;;8500414;27;19922;-51
2023/09/08 10:23:29;;;;;;;;;;;23.40;59.90;;;;;;8499729;27;19919;-49
2023/09/08 10:27:31;;;;;;;;;;;23.40;59.90;;;;;;8500408;27;19911;-50
2023/09/08 10:31:32;;;;;;;;;;;23.40;59.80;;;;;;8499818;27;20284;-50
2023/09/08 10:35:32;;;;;;;;;;;23.40;59.90;;;;;;8481110;27;19955;-48
2023/09/08 10:39:35;;;;;;;;;;;23.40;59.80;;;;;;8499416;27;20429;-48
2023/09/08 10:43:37;;;;;;;;;;;23.40;59.90;;;;;;8499239;27;19908;-49
2023/09/08 10:47:46;;;;;;;;;;;23.40;59.90;;;;;;8498135;27;20525;-49
2023/09/08 10:51:47;;;;;;;;;;;23.40;59.90;;;;;;8499166;27;19918;-51
2023/09/08 10:55:52;;;;;;;;;;;23.40;59.80;;;;;;8499339;27;19935;-48
2023/09/08 10:59:56;;;;;;;;;;;23.40;59.90;;;;;;8498964;27;19916;-49
2023/09/08 11:03:57;;;;;;;;;;;23.40;59.80;;;;;;8498692;27;19939;-50
2023/09/08 11:07:59;;;;;;;;;;;23.40;59.80;;;;;;8498843;27;19962;-50
2023/09/08 11:12:02;;;;;;;;;;;23.40;59.80;;;;;;8498366;27;20373;-51
2023/09/08 11:16:03;;;;;;;;;;;23.40;59.80;;;;;;8498315;27;20423;-51
2023/09/08 11:20:08;;;;;;;;;;;23.40;59.80;;;;;;8497955;27;20412;-49
2023/09/08 11:24:10;;;;;;;;;;;23.40;59.80;;;;;;8498182;27;20553;-49
2023/09/08 11:28:11;;;;;;;;;;;23.40;59.80;;;;;;8498388;27;19911;-49
2023/09/08 11:32:12;;;;;;;;;;;23.40;59.80;;;;;;8497841;27;19955;-51
2023/09/08 11:36:14;;;;;;;;;;;23.40;60.60;;;;;;8497665;27;19911;-50
2023/09/08 11:40:15;;;;;;;;;;;23.40;59.80;;;;;;8497458;27;19915;-50
2023/09/08 11:44:17;;;;;;;;;;;23.40;59.80;;;;;;8513765;27;19911;-50
2023/09/08 11:48:17;;;;;;;;;;;23.40;59.80;;;;;;8497370;27;19911;-49
2023/09/08 11:52:18;;;;;;;;;;;23.40;59.80;;;;;;8495796;27;20418;-48
2023/09/08 11:56:18;;;;;;;;;;;23.40;59.80;;;;;;8497687;27;19918;-51
2023/09/08 12:00:21;;;;;;;;;;;23.40;59.80;;;;;;8496682;27;20010;-49
2023/09/08 12:04:21;;;;;;;;;;;23.40;59.80;;;;;;8496899;27;19907;-51
2023/09/08 12:08:24;;;;;;;;;;;23.40;59.80;;;;;;8496909;27;19911;-52
2023/09/08 12:12:26;;;;;;;;;;;23.40;59.80;;;;;;8496526;27;19911;-49
2023/09/08 12:16:26;;;;;;;;;;;23.40;59.80;;;;;;8496398;27;19960;-48
2023/09/08 12:20:27;;;;;;;;;;;23.40;59.80;;;;;;8496362;27;19978;-50
2023/09/08 12:24:47;;;;;;;;;;;23.40;59.80;;;;;;8496750;27;20380;-49
2023/09/08 12:28:48;;;;;;;;;;;23.40;59.80;;;;;;8496226;27;19935;-50
2023/09/08 12:32:51;;;;;;;;;;;23.40;59.70;;;;;;8496268;27;20001;-50
2023/09/08 12:36:55;;;;;;;;;;;23.40;59.80;;;;;;8495660;27;19919;-50
2023/09/08 12:40:55;;;;;;;;;;;23.40;59.80;;;;;;8495737;27;19918;-50
2023/09/08 12:44:56;;;;;;;;;;;23.40;59.70;;;;;;8495501;27;19911;-51
2023/09/08 12:48:56;;;;;;;;;;;23.40;59.70;;;;;;8495581;27;19912;-50
2023/09/08 12:52:57;;;;;;;;;;;23.40;59.70;;;;;;8495527;27;19926;-48
2023/09/08 12:56:57;;;;;;;;;;;23.40;59.70;;;;;;8495392;27;19964;-49
2023/09/08 13:00:58;;;;;;;;;;;23.40;59.70;;;;;;8495036;27;19922;-50
2023/09/08 13:04:59;;;;;;;;;;;23.40;59.70;;;;;;8495168;27;20008;-50
2023/09/08 13:08:59;;;;;;;;;;;23.40;59.70;;;;;;8494219;27;19911;-49
2023/09/08 13:13:00;;;;;;;;;;;23.40;59.70;;;;;;8494915;27;19907;-50
2023/09/08 13:17:01;;;;;;;;;;;23.40;59.70;;;;;;8494937;27;19922;-51
2023/09/08 13:21:01;;;;;;;;;;;23.40;59.70;;;;;;8494435;27;19920;-51
2023/09/08 13:25:02;;;;;;;;;;;23.40;59.70;;;;;;8495099;27;19912;-51
2023/09/08 13:29:03;;;;;;;;;;;23.40;59.70;;;;;;8494612;27;20361;-50
2023/09/08 13:33:03;;;;;;;;;;;23.40;59.70;;;;;;8494491;27;19923;-49
2023/09/08 13:37:04;;;;;;;;;;;23.40;59.70;;;;;;8494591;28;19918;-50
2023/09/08 13:41:05;;;;;;;;;;;23.50;59.70;;;;;;8494161;28;19961;-49
2023/09/08 13:45:06;;;;;;;;;;;23.40;59.70;;;;;;8494274;28;19918;-49
2023/09/08 13:49:06;;;;;;;;;;;23.50;60.40;;;;;;8494249;28;20010;-49
2023/09/08 13:53:07;;;;;;;;;;;23.40;59.60;;;;;;8494211;28;19922;-49
2023/09/08 13:57:07;;;;;;;;;;;23.50;59.70;;;;;;8494496;27;19965;-48
2023/09/08 14:01:08;;;;;;;;;;;23.50;59.70;;;;;;8494111;28;20383;-50
2023/09/08 14:05:09;;;;;;;;;;;23.50;59.70;;;;;;8493694;28;19911;-48
2023/09/08 14:09:09;;;;;;;;;;;23.40;59.60;;;;;;8494305;28;19919;-49
2023/09/08 14:13:10;;;;;;;;;;;23.40;59.60;;;;;;8493908;28;20284;-49
2023/09/08 14:17:11;;;;;;;;;;;23.50;59.70;;;;;;8493689;28;20026;-49
2023/09/08 14:21:11;;;;;;;;;;;23.50;59.60;;;;;;8496050;27;19972;-50
2023/09/08 14:25:12;;;;;;;;;;;23.40;59.60;;;;;;8500452;27;20284;-49
2023/09/08 14:29:13;;;;;;;;;;;23.50;59.60;;;;;;8499822;27;19908;-49
2023/09/08 14:33:14;;;;;;;;;;;23.50;59.60;;;;;;8499942;27;19919;-50
2023/09/08 14:37:14;;;;;;;;;;;23.50;59.60;;;;;;8515409;27;19921;-49
2023/09/08 14:41:15;;;;;;;;;;;23.50;59.60;;;;;;8499472;27;19912;-49
2023/09/08 14:45:16;;;;;;;;;;;23.50;59.70;;;;;;8499386;27;20284;-49
2023/09/08 14:49:16;;;;;;;;;;;23.50;59.60;;;;;;8499554;27;19919;-50
2023/09/08 14:53:17;;;;;;;;;;;23.50;59.60;;;;;;8499283;27;20012;-49
2023/09/08 14:57:18;;;;;;;;;;;23.50;59.60;;;;;;8507369;27;20395;-48
2023/09/08 15:01:18;;;;;;;;;;;23.50;59.60;;;;;;8499248;27;19912;-50
2023/09/08 15:05:19;;;;;;;;;;;23.50;59.70;;;;;;8499034;27;19937;-50
2023/09/08 15:09:20;;;;;;;;;;;23.50;59.70;;;;;;8498604;27;19960;-49
2023/09/08 15:13:20;;;;;;;;;;;23.50;59.70;;;;;;8498492;27;19911;-49
2023/09/08 15:17:21;;;;;;;;;;;23.50;59.70;;;;;;8498931;27;20285;-48
2023/09/08 15:21:27;;;;;;;;;;;23.50;59.70;;;;;;8498099;27;20338;-51
2023/09/08 15:25:27;;;;;;;;;;;23.50;59.70;;;;;;8498421;27;20700;-51
2023/09/08 15:29:28;;;;;;;;;;;23.50;59.70;;;;;;8514196;27;20292;-49
2023/09/08 15:33:28;;;;;;;;;;;23.50;59.70;;;;;;8497151;27;20011;-49
2023/09/08 15:37:29;;;;;;;;;;;23.50;59.70;;;;;;8497829;27;19923;-48
2023/09/08 15:41:29;;;;;;;;;;;23.50;59.70;;;;;;8513340;27;20276;-49
2023/09/08 15:45:30;;;;;;;;;;;23.50;59.70;;;;;;8497528;27;20006;-49
2023/09/08 15:49:30;;;;;;;;;;;23.40;59.70;;;;;;8497580;27;19918;-48
2023/09/08 15:53:31;;;;;;;;;;;23.50;59.70;;;;;;8496956;27;20436;-49
2023/09/08 15:57:32;;;;;;;;;;;23.50;59.70;;;;;;8497240;27;19961;-49
2023/09/08 16:01:32;;;;;;;;;;;23.50;59.70;;;;;;8497882;27;20257;-50
2023/09/08 16:05:33;;;;;;;;;;;23.40;59.60;;;;;;8496828;27;19908;-51
2023/09/08 16:09:33;;;;;;;;;;;23.50;59.70;;;;;;8478551;27;20440;-50
2023/09/08 16:13:34;;;;;;;;;;;23.50;59.70;;;;;;8496701;27;19964;-49
2023/09/08 16:17:34;;;;;;;;;;;23.50;59.70;;;;;;8512385;27;20368;-50
2023/09/08 16:21:35;;;;;;;;;;;23.50;59.70;;;;;;8496305;27;19919;-51
2023/09/08 16:25:36;;;;;;;;;;;23.50;59.70;;;;;;8496388;27;19968;-51
2023/09/08 16:29:39;;;;;;;;;;;23.50;59.70;;;;;;8496216;27;19907;-50
2023/09/08 16:33:39;;;;;;;;;;;23.50;59.70;;;;;;8496132;27;20371;-48
2023/09/08 16:37:40;;;;;;;;;;;23.50;59.70;;;;;;8496999;27;20482;-48
2023/09/08 16:41:40;;;;;;;;;;;23.50;59.70;;;;;;8497915;27;19911;-51
2023/09/08 16:45:41;;;;;;;;;;;23.50;59.70;;;;;;8497653;27;19907;-51
2023/09/08 16:49:41;;;;;;;;;;;23.40;59.60;;;;;;8497932;27;19947;-51
2023/09/08 16:53:42;;;;;;;;;;;23.50;59.70;;;;;;8498256;27;20590;-51
2023/09/08 16:57:42;;;;;;;;;;;23.50;59.70;;;;;;8501673;27;19921;-49
2023/09/08 17:01:43;;;;;;;;;;;23.50;59.70;;;;;;8497541;27;19919;-50
2023/09/08 17:05:44;;;;;;;;;;;23.50;59.70;;;;;;8496428;27;19911;-50
2023/09/08 17:09:44;;;;;;;;;;;23.50;60.30;;;;;;8479152;27;19916;-49
2023/09/08 17:13:45;;;;;;;;;;;23.50;59.70;;;;;;8477906;27;20474;-49
2023/09/08 17:17:46;;;;;;;;;;;23.50;59.70;;;;;;8496021;27;19919;-49
2023/09/08 17:21:46;;;;;;;;;;;23.50;59.70;;;;;;8496062;27;19927;-49
2023/09/08 17:25:47;;;;;;;;;;;23.50;59.70;;;;;;8496644;27;19934;-50
2023/09/08 17:29:47;;;;;;;;;;;23.40;59.60;;;;;;8497035;27;19915;-51
2023/09/08 17:33:49;;;;;;;;;;;23.50;59.70;;;;;;8496857;27;20542;-50
2023/09/08 17:37:50;;;;;;;;;;;23.50;59.70;;;;;;8478411;28;19916;-51
2023/09/08 17:41:50;;;;;;;;;;;23.50;59.70;;;;;;8511330;27;20383;-50
2023/09/08 17:45:51;;;;;;;;;;;23.50;59.70;;;;;;8496824;28;20303;-49
2023/09/08 17:49:51;;;;;;;;;;;23.50;59.70;;;;;;8495708;28;20002;-51
2023/09/08 17:53:52;;;;;;;;;;;23.40;59.70;;;;;;8496493;28;19911;-49
2023/09/08 17:57:53;;;;;;;;;;;23.40;59.70;;;;;;8521958;27;19922;-51
2023/09/08 18:01:53;;;;;;;;;;;23.50;59.70;;;;;;8537708;27;19979;-51
2023/09/08 18:05:54;;;;;;;;;;;23.40;59.70;;;;;;8537001;27;20380;-51
2023/09/08 18:09:55;;;;;;;;;;;23.40;59.70;;;;;;8537078;27;20313;-50
2023/09/08 18:13:55;;;;;;;;;;;23.40;59.70;;;;;;8537388;27;19918;-50
2023/09/08 18:17:56;;;;;;;;;;;23.40;59.70;;;;;;8517376;27;19915;-48
2023/09/08 18:21:57;;;;;;;;;;;23.50;59.70;;;;;;8536657;27;19923;-49
2023/09/08 18:25:57;;;;;;;;;;;23.50;59.70;;;;;;8522276;27;19969;-48
2023/09/08 18:29:58;;;;;;;;;;;23.50;59.70;;;;;;8502306;27;19915;-51
2023/09/08 18:33:58;;;;;;;;;;;23.40;59.70;;;;;;8501155;27;20280;-50
2023/09/08 18:37:59;;;;;;;;;;;23.40;59.70;;;;;;8502086;27;20004;-49
2023/09/08 18:41:59;;;;;;;;;;;23.40;59.70;;;;;;8482270;27;19930;-48
2023/09/08 18:46:00;;;;;;;;;;;23.50;59.80;;;;;;8502143;27;19918;-48
2023/09/08 18:50:01;;;;;;;;;;;23.50;59.70;;;;;;8501389;27;19958;-50
2023/09/08 18:54:01;;;;;;;;;;;23.50;59.70;;;;;;8501232;27;19950;-48
2023/09/08 18:58:02;;;;;;;;;;;23.40;59.70;;;;;;8501643;27;19964;-48
2023/09/08 19:02:04;;;;;;;;;;;23.40;59.70;;;;;;8500383;27;19916;-51
2023/09/08 19:06:05;;;;;;;;;;;23.50;59.70;;;;;;8501332;27;19940;-52
2023/09/08 19:10:05;;;;;;;;;;;23.40;59.70;;;;;;8499626;27;19911;-51
2023/09/08 19:14:06;;;;;;;;;;;23.40;59.70;;;;;;8501043;27;19964;-51
2023/09/08 19:18:06;;;;;;;;;;;23.40;59.70;;;;;;8499601;27;19916;-49
2023/09/08 19:22:07;;;;;;;;;;;23.40;59.70;;;;;;8500680;27;19927;-50
2023/09/08 19:26:08;;;;;;;;;;;23.40;59.70;;;;;;8499744;27;20356;-50
2023/09/08 19:30:10;;;;;;;;;;;23.40;59.70;;;;;;8516585;27;20286;-49
2023/09/08 19:34:11;;;;;;;;;;;23.50;59.70;;;;;;8515468;27;19960;-51
2023/09/08 19:38:11;;;;;;;;;;;23.40;59.70;;;;;;8499975;27;20010;-51
2023/09/08 19:42:14;;;;;;;;;;;23.40;59.70;;;;;;8500467;27;20031;-51
2023/09/08 19:46:15;;;;;;;;;;;23.40;59.70;;;;;;8498779;27;19919;-51
2023/09/08 19:50:15;;;;;;;;;;;23.40;59.70;;;;;;8499986;27;19911;-49
2023/09/08 19:54:16;;;;;;;;;;;23.40;59.70;;;;;;8498736;27;19908;-50
2023/09/08 19:58:16;;;;;;;;;;;23.40;59.70;;;;;;8499483;27;20014;-48
2023/09/08 20:02:17;;;;;;;;;;;23.40;59.70;;;;;;8498384;27;19911;-49
2023/09/08 20:06:17;;;;;;;;;;;23.50;59.70;;;;;;8499147;27;20380;-50
2023/09/08 20:10:19;;;;;;;;;;;23.40;59.70;;;;;;8498364;27;20055;-48
2023/09/08 20:14:19;;;;;;;;;;;23.40;59.70;;;;;;8499452;27;19911;-51
2023/09/08 20:18:20;;;;;;;;;;;23.40;59.70;;;;;;8497883;27;19964;-50
2023/09/08 20:22:20;;;;;;;;;;;23.40;59.70;;;;;;8498097;27;20018;-50
2023/09/08 20:26:21;;;;;;;;;;;23.40;59.70;;;;;;8499152;27;19912;-51
2023/09/08 20:30:22;;;;;;;;;;;23.40;59.70;;;;;;8497226;27;20399;-50
2023/09/08 20:34:22;;;;;;;;;;;23.40;59.70;;;;;;8498447;27;19967;-51
2023/09/08 20:38:23;;;;;;;;;;;23.40;59.70;;;;;;8496883;27;19965;-49
2023/09/08 20:42:23;;;;;;;;;;;23.40;59.70;;;;;;8497703;27;19971;-50
2023/09/08 20:46:24;;;;;;;;;;;23.40;59.70;;;;;;8496868;27;19911;-50
2023/09/08 20:50:25;;;;;;;;;;;23.40;59.70;;;;;;8497473;27;20362;-51
2023/09/08 20:54:26;;;;;;;;;;;23.40;59.70;;;;;;8497143;27;19921;-48
2023/09/08 20:58:27;;;;;;;;;;;23.40;59.70;;;;;;8497062;27;19922;-51
2023/09/08 21:02:27;;;;;;;;;;;23.40;59.70;;;;;;8496505;27;19916;-50
2023/09/08 21:06:28;;;;;;;;;;;23.40;59.70;;;;;;8496732;27;20006;-51
2023/09/08 21:10:28;;;;;;;;;;;23.40;59.70;;;;;;8497133;27;19911;-51
2023/09/08 21:14:29;;;;;;;;;;;23.40;59.70;;;;;;8495860;27;19936;-49
2023/09/08 21:18:30;;;;;;;;;;;23.40;59.70;;;;;;8478664;27;20445;-51
2023/09/08 21:22:30;;;;;;;;;;;23.40;59.70;;;;;;8495825;27;19924;-50
2023/09/08 21:26:31;;;;;;;;;;;23.40;59.70;;;;;;8497562;27;20374;-49
2023/09/08 21:30:32;;;;;;;;;;;23.40;59.70;;;;;;8495297;27;20528;-49
2023/09/08 21:34:32;;;;;;;;;;;23.40;59.70;;;;;;8496588;27;20029;-50
2023/09/08 21:38:33;;;;;;;;;;;23.40;59.70;;;;;;8495805;28;19916;-51
2023/09/08 21:42:33;;;;;;;;;;;23.40;59.70;;;;;;8495915;28;20409;-51
2023/09/08 21:46:34;;;;;;;;;;;23.40;59.80;;;;;;8495798;28;19912;-50
2023/09/08 21:50:35;;;;;;;;;;;23.40;59.70;;;;;;8495919;28;20223;-49
2023/09/08 21:54:35;;;;;;;;;;;23.40;59.70;;;;;;8496728;27;19912;-50
2023/09/08 21:58:36;;;;;;;;;;;23.40;59.70;;;;;;8494865;28;19972;-51
2023/09/08 22:02:36;;;;;;;;;;;23.40;59.70;;;;;;8496017;28;20312;-51
2023/09/08 22:06:37;;;;;;;;;;;23.40;59.80;;;;;;8494590;28;19979;-51
2023/09/08 22:10:37;;;;;;;;;;;23.40;59.70;;;;;;8495221;28;19916;-51
2023/09/08 22:14:38;;;;;;;;;;;23.40;59.80;;;;;;8495374;28;20007;-50
2023/09/08 22:18:38;;;;;;;;;;;23.40;59.80;;;;;;8496359;28;19916;-49
2023/09/08 22:22:39;;;;;;;;;;;23.40;59.80;;;;;;8495755;28;19947;-49
2023/09/08 22:26:40;;;;;;;;;;;23.40;59.80;;;;;;8496124;27;19911;-49
2023/09/08 22:30:40;;;;;;;;;;;23.40;59.80;;;;;;8495136;28;19907;-48
2023/09/08 22:34:41;;;;;;;;;;;23.40;59.80;;;;;;8511445;27;20446;-51
2023/09/08 22:38:41;;;;;;;;;;;23.40;60.50;;;;;;8495612;28;19966;-51
2023/09/08 22:42:42;;;;;;;;;;;23.40;59.80;;;;;;8496240;27;20009;-51
2023/09/08 22:46:43;;;;;;;;;;;23.40;59.80;;;;;;8501115;27;19911;-48
2023/09/08 22:50:43;;;;;;;;;;;23.40;59.80;;;;;;8500105;27;20378;-51
2023/09/08 22:54:44;;;;;;;;;;;23.40;59.80;;;;;;8517601;27;19915;-50
2023/09/08 22:58:45;;;;;;;;;;;23.40;59.80;;;;;;8500423;27;19938;-51
2023/09/08 23:02:46;;;;;;;;;;;23.40;59.80;;;;;;8502027;27;19937;-51
2023/09/08 23:06:47;;;;;;;;;;;23.40;59.80;;;;;;8516495;27;19968;-49
2023/09/08 23:10:50;;;;;;;;;;;23.40;59.80;;;;;;8500770;27;19911;-51
2023/09/08 23:14:51;;;;;;;;;;;23.40;59.80;;;;;;8500804;27;19985;-50
2023/09/08 23:18:51;;;;;;;;;;;23.40;59.80;;;;;;8481743;27;19915;-49